createdAt,value
2023-02-09T00:02:05.838Z,5.20
2023-02-09T00:04:34.634Z,5.03
2023-02-09T00:07:01.114Z,5.00
2023-02-09T00:09:27.597Z,5.80
2023-02-09T00:12:12.809Z,5.20
2023-02-09T00:14:39.485Z,6.07
2023-02-09T00:17:05.973Z,6.23
2023-02-09T00:19:33.424Z,5.70
2023-02-09T00:22:00.059Z,6.20
2023-02-09T00:24:26.567Z,4.27
2023-02-09T00:26:53.089Z,5.80
2023-02-09T00:29:23.887Z,6.00
2023-02-09T00:31:50.517Z,5.67
2023-02-09T00:34:17.086Z,5.77
2023-02-09T00:36:43.586Z,5.40
2023-02-09T00:39:10.114Z,6.37
2023-02-09T00:41:55.361Z,5.53
2023-02-09T00:44:21.847Z,5.57
2023-02-09T00:46:49.058Z,4.70
2023-02-09T00:49:15.675Z,5.53
2023-02-09T00:51:42.173Z,5.53
2023-02-09T00:54:08.650Z,4.90
2023-02-09T00:56:35.159Z,5.53
2023-02-09T00:59:01.706Z,5.90
2023-02-09T01:01:28.254Z,6.30
2023-02-09T01:03:54.734Z,6.07
2023-02-09T01:06:21.212Z,6.50
2023-02-09T01:08:47.698Z,7.30
2023-02-09T01:11:14.255Z,6.23
2023-02-09T01:13:40.799Z,5.10
2023-02-09T01:16:07.324Z,5.33
2023-02-09T01:18:34.044Z,5.63
2023-02-09T01:21:00.528Z,5.17
2023-02-09T01:23:26.999Z,5.47
2023-02-09T01:25:53.502Z,5.90
2023-02-09T01:28:20.041Z,5.90
2023-02-09T01:30:46.873Z,5.30
2023-02-09T01:33:14.815Z,5.40
2023-02-09T01:35:41.301Z,5.30
2023-02-09T01:38:07.888Z,5.20
2023-02-09T01:40:34.389Z,6.00
2023-02-09T01:43:00.892Z,6.83
2023-02-09T01:45:27.394Z,5.90
2023-02-09T01:47:53.895Z,5.80
2023-02-09T01:50:20.578Z,6.00
2023-02-09T01:52:47.049Z,5.30
2023-02-09T01:55:13.530Z,6.10
2023-02-09T01:57:40.068Z,6.10
2023-02-09T02:00:06.669Z,4.80
2023-02-09T02:02:33.279Z,5.90
2023-02-09T02:04:59.798Z,4.53
2023-02-09T02:07:26.349Z,5.47
2023-02-09T02:09:52.830Z,5.53
2023-02-09T02:12:19.320Z,6.90
2023-02-09T02:14:45.849Z,5.30
2023-02-09T02:17:12.344Z,6.17
2023-02-09T02:19:39.343Z,5.37
2023-02-09T02:22:05.816Z,5.30
2023-02-09T02:24:32.300Z,5.00
2023-02-09T02:26:58.823Z,4.50
2023-02-09T02:29:25.392Z,5.90
2023-02-09T02:31:51.930Z,6.10
2023-02-09T02:34:18.395Z,5.80
2023-02-09T02:36:44.887Z,6.33
2023-02-09T02:39:11.393Z,5.93
2023-02-09T02:41:57.877Z,6.13
2023-02-09T02:44:24.557Z,5.70
2023-02-09T02:46:51.133Z,5.40
2023-02-09T02:49:17.659Z,5.80
2023-02-09T02:51:44.204Z,7.17
2023-02-09T02:54:10.728Z,5.10
2023-02-09T02:56:37.210Z,4.30
2023-02-09T02:59:03.709Z,5.87
2023-02-09T03:01:30.238Z,6.87
2023-02-09T03:03:56.725Z,5.97
2023-02-09T03:06:23.272Z,4.83
2023-02-09T03:08:49.782Z,6.93
2023-02-09T03:11:16.256Z,5.40
2023-02-09T03:13:43.142Z,5.00
2023-02-09T03:16:09.737Z,5.97
2023-02-09T03:18:36.654Z,6.33
2023-02-09T03:21:03.137Z,5.50
2023-02-09T03:23:29.617Z,6.20
2023-02-09T03:25:56.134Z,6.63
2023-02-09T03:28:22.655Z,6.60
2023-02-09T03:30:50.049Z,4.53
2023-02-09T03:33:16.641Z,5.70
2023-02-09T03:35:43.113Z,5.27
2023-02-09T03:38:09.621Z,5.67
2023-02-09T03:40:36.126Z,4.47
2023-02-09T03:43:02.656Z,6.10
2023-02-09T03:45:29.179Z,5.13
2023-02-09T03:47:55.700Z,6.70
2023-02-09T03:50:22.257Z,5.03
2023-02-09T03:52:48.746Z,5.33
2023-02-09T03:55:15.238Z,6.60
2023-02-09T03:57:41.733Z,5.67
2023-02-09T04:00:08.276Z,5.87
2023-02-09T04:05:06.304Z,5.37
2023-02-09T04:07:33.462Z,7.13
2023-02-09T04:10:00.214Z,5.57
2023-02-09T04:12:27.040Z,5.80
2023-02-09T04:14:53.693Z,5.47
2023-02-09T04:17:20.506Z,4.43
2023-02-09T04:19:47.291Z,6.40
2023-02-09T04:22:14.002Z,5.50
2023-02-09T04:24:40.784Z,5.20
2023-02-09T04:27:07.521Z,6.03
2023-02-09T04:29:34.168Z,5.87
2023-02-09T04:32:00.970Z,6.23
2023-02-09T04:34:27.721Z,6.10
2023-02-09T04:36:54.428Z,4.83
2023-02-09T04:39:21.245Z,5.53
2023-02-09T04:41:48.026Z,6.67
2023-02-09T04:44:14.809Z,5.87
2023-02-09T04:46:41.513Z,5.40
2023-02-09T04:49:08.280Z,6.47
2023-02-09T04:51:35.113Z,6.03
2023-02-09T04:54:01.810Z,6.77
2023-02-09T04:56:28.553Z,5.30
2023-02-09T04:59:14.008Z,5.10
2023-02-09T05:01:40.913Z,6.30
2023-02-09T05:04:07.741Z,6.90
2023-02-09T05:06:34.633Z,6.73
2023-02-09T05:09:01.404Z,6.70
2023-02-09T05:11:28.150Z,5.20
2023-02-09T05:13:54.734Z,5.83
2023-02-09T05:16:21.578Z,6.37
2023-02-09T05:18:50.331Z,5.97
2023-02-09T05:21:17.133Z,6.47
2023-02-09T05:23:43.946Z,7.03
2023-02-09T05:26:10.815Z,5.77
2023-02-09T05:28:37.760Z,5.77
2023-02-09T05:31:04.684Z,6.30
2023-02-09T05:33:31.650Z,5.37
2023-02-09T05:35:58.352Z,4.93
2023-02-09T05:38:25.144Z,6.27
2023-02-09T05:40:51.774Z,6.10
2023-02-09T05:43:18.483Z,7.17
2023-02-09T05:45:45.285Z,6.20
2023-02-09T05:48:14.612Z,5.60
2023-02-09T05:50:41.350Z,6.27
2023-02-09T05:53:07.965Z,5.73
2023-02-09T05:55:34.647Z,5.80
2023-02-09T05:58:01.454Z,6.00
2023-02-09T06:00:29.835Z,6.20
2023-02-09T06:02:56.995Z,5.40
2023-02-09T06:05:23.869Z,6.13
2023-02-09T06:07:50.869Z,5.70
2023-02-09T06:10:17.638Z,6.50
2023-02-09T06:12:44.455Z,5.87
2023-02-09T06:15:11.178Z,5.60
2023-02-09T06:17:38.135Z,6.23
2023-02-09T06:20:04.917Z,7.00
2023-02-09T06:22:31.969Z,6.57
2023-02-09T06:24:58.821Z,6.80
2023-02-09T06:27:25.939Z,7.00
2023-02-09T06:29:52.782Z,7.07
2023-02-09T06:32:19.550Z,6.20
2023-02-09T06:34:46.238Z,6.43
2023-02-09T06:37:13.244Z,5.67
2023-02-09T06:39:40.157Z,5.23
2023-02-09T06:42:06.963Z,6.80
2023-02-09T06:44:33.799Z,6.40
2023-02-09T06:47:00.560Z,7.63
2023-02-09T06:49:27.241Z,7.20
2023-02-09T06:51:54.197Z,8.40
2023-02-09T06:54:20.968Z,7.60
2023-02-09T06:56:47.908Z,8.30
2023-02-09T06:59:14.749Z,6.80
2023-02-09T07:01:41.805Z,7.17
2023-02-09T07:04:08.614Z,6.43
2023-02-09T07:06:35.173Z,7.23
2023-02-09T07:09:01.775Z,6.00
2023-02-09T07:11:28.332Z,6.73
2023-02-09T07:13:54.913Z,6.40
2023-02-09T07:16:21.737Z,6.53
2023-02-09T07:18:48.428Z,7.27
2023-02-09T07:21:19.964Z,7.20
2023-02-09T07:23:46.551Z,8.23
2023-02-09T07:26:13.473Z,6.13
2023-02-09T07:28:40.033Z,6.80
2023-02-09T07:31:06.656Z,6.53
2023-02-09T07:33:33.305Z,6.67
2023-02-09T07:35:59.859Z,7.40
2023-02-09T07:38:26.559Z,7.87
2023-02-09T07:40:53.269Z,6.77
2023-02-09T07:43:19.740Z,7.33
2023-02-09T07:45:46.677Z,6.37
2023-02-09T07:48:13.350Z,7.00
2023-02-09T07:50:40.510Z,7.27
2023-02-09T07:53:07.087Z,4.90
2023-02-09T07:55:33.664Z,6.03
2023-02-09T07:58:00.695Z,6.60
2023-02-09T08:00:27.248Z,7.40
2023-02-09T08:02:53.748Z,6.77
2023-02-09T08:05:20.397Z,6.53
2023-02-09T08:07:46.982Z,8.53
2023-02-09T08:10:13.471Z,6.60
2023-02-09T08:12:58.610Z,7.57
2023-02-09T08:15:25.286Z,7.60
2023-02-09T08:17:51.828Z,6.23
2023-02-09T08:20:18.317Z,7.50
2023-02-09T08:22:45.152Z,7.17
2023-02-09T08:25:11.741Z,6.57
2023-02-09T08:27:39.053Z,6.90
2023-02-09T08:30:05.659Z,7.37
2023-02-09T08:32:32.149Z,6.93
2023-02-09T08:34:58.684Z,7.83
2023-02-09T08:37:25.242Z,7.03
2023-02-09T08:39:51.745Z,5.47
2023-02-09T08:42:18.254Z,6.67
2023-02-09T08:44:44.749Z,7.60
2023-02-09T08:47:11.302Z,8.40
2023-02-09T08:49:37.804Z,7.23
2023-02-09T08:52:04.322Z,7.97
2023-02-09T08:54:30.818Z,6.07
2023-02-09T08:56:57.328Z,6.77
2023-02-09T08:59:23.814Z,8.60
2023-02-09T09:01:50.294Z,7.87
2023-02-09T09:04:17.035Z,6.60
2023-02-09T09:06:43.538Z,7.27
2023-02-09T09:09:10.080Z,8.07
2023-02-09T09:11:36.624Z,7.17
2023-02-09T09:14:03.108Z,7.90
2023-02-09T09:16:29.704Z,7.33
2023-02-09T09:18:56.345Z,8.20
2023-02-09T09:21:22.865Z,7.40
2023-02-09T09:23:49.424Z,8.10
2023-02-09T09:26:16.070Z,8.30
2023-02-09T09:28:42.609Z,8.10
2023-02-09T09:31:09.529Z,7.03
2023-02-09T09:33:36.140Z,6.80
2023-02-09T09:36:02.676Z,7.77
2023-02-09T09:38:29.193Z,7.30
2023-02-09T09:40:55.725Z,8.50
2023-02-09T09:43:22.202Z,8.57
2023-02-09T09:45:49.179Z,8.00
2023-02-09T09:48:15.851Z,9.00
2023-02-09T09:50:42.420Z,7.37
2023-02-09T09:53:08.980Z,8.80
2023-02-09T09:55:35.630Z,8.83
2023-02-09T09:58:02.108Z,7.43
2023-02-09T10:00:28.583Z,7.40
2023-02-09T10:02:55.138Z,8.47
2023-02-09T10:05:21.726Z,7.73
2023-02-09T10:07:48.270Z,8.50
2023-02-09T10:10:14.770Z,9.03
2023-02-09T10:12:41.458Z,8.67
2023-02-09T10:15:07.951Z,7.20
2023-02-09T10:17:34.520Z,8.70
2023-02-09T10:20:01.388Z,9.80
2023-02-09T10:22:27.935Z,7.63
2023-02-09T10:24:54.569Z,8.47
2023-02-09T10:27:21.078Z,9.03
2023-02-09T10:29:47.603Z,8.63
2023-02-09T10:32:14.627Z,9.03
2023-02-09T10:34:41.163Z,10.37
2023-02-09T10:37:07.684Z,9.57
2023-02-09T10:39:34.223Z,8.63
2023-02-09T10:42:00.806Z,9.00
2023-02-09T10:44:27.336Z,8.33
2023-02-09T10:46:53.859Z,8.00
2023-02-09T10:49:20.343Z,9.40
2023-02-09T10:51:46.868Z,7.60
2023-02-09T10:54:13.374Z,9.00
2023-02-09T10:56:39.881Z,10.30
2023-02-09T10:59:06.510Z,9.93
2023-02-09T11:01:33.075Z,9.03
2023-02-09T11:03:59.800Z,9.80
2023-02-09T11:06:26.366Z,9.70
2023-02-09T11:08:53.030Z,9.07
2023-02-09T11:11:19.569Z,8.90
2023-02-09T11:13:46.107Z,9.77
2023-02-09T11:16:12.621Z,9.40
2023-02-09T11:18:39.210Z,9.80
2023-02-09T11:21:05.731Z,10.23
2023-02-09T11:23:32.229Z,8.60
2023-02-09T11:25:58.709Z,9.57
2023-02-09T11:28:25.345Z,8.80
2023-02-09T11:30:52.036Z,9.00
2023-02-09T11:33:18.631Z,8.47
2023-02-09T11:35:45.120Z,10.27
2023-02-09T11:38:11.605Z,9.50
2023-02-09T11:40:38.087Z,9.67
2023-02-09T11:43:04.616Z,8.07
2023-02-09T11:45:31.102Z,9.20
2023-02-09T11:47:58.305Z,9.57
2023-02-09T11:50:24.972Z,7.83
2023-02-09T11:52:51.500Z,8.50
2023-02-09T11:55:18.036Z,7.73
2023-02-09T11:57:44.528Z,8.10
2023-02-09T12:00:11.041Z,7.93
2023-02-09T12:02:37.869Z,8.30
2023-02-09T12:05:04.406Z,7.80
2023-02-09T12:07:32.922Z,9.63
2023-02-09T12:09:59.838Z,8.50
2023-02-09T12:12:26.313Z,8.27
2023-02-09T12:14:52.810Z,8.23
2023-02-09T12:17:19.289Z,8.70
2023-02-09T12:19:46.307Z,8.40
2023-02-09T12:22:12.787Z,9.23
2023-02-09T12:24:39.271Z,9.00
2023-02-09T12:27:05.815Z,9.30
2023-02-09T12:29:32.296Z,8.77
2023-02-09T12:31:58.843Z,10.13
2023-02-09T12:34:25.349Z,9.17
2023-02-09T12:36:51.853Z,8.03
2023-02-09T12:39:23.886Z,9.70
2023-02-09T12:41:50.570Z,9.20
2023-02-09T12:44:17.154Z,9.67
2023-02-09T12:46:43.675Z,8.87
2023-02-09T12:49:10.228Z,9.47
2023-02-09T12:51:36.746Z,9.60
2023-02-09T12:54:03.236Z,8.47
2023-02-09T12:56:29.787Z,8.93
2023-02-09T12:58:56.341Z,8.70
2023-02-09T13:01:22.902Z,8.20
2023-02-09T13:03:49.503Z,8.53
2023-02-09T13:06:16.011Z,9.70
2023-02-09T13:08:42.560Z,8.30
2023-02-09T13:11:09.059Z,8.93
2023-02-09T13:13:35.585Z,8.17
2023-02-09T13:16:05.198Z,8.80
2023-02-09T13:18:31.732Z,8.73
2023-02-09T13:20:58.264Z,8.23
2023-02-09T13:23:24.845Z,8.27
2023-02-09T13:25:51.398Z,8.20
2023-02-09T13:28:18.018Z,9.00
2023-02-09T13:30:44.569Z,8.33
2023-02-09T13:33:11.099Z,8.50
2023-02-09T13:35:37.572Z,8.67
2023-02-09T13:38:04.041Z,8.60
2023-02-09T13:40:30.521Z,9.07
2023-02-09T13:42:57.062Z,8.60
2023-02-09T13:45:23.953Z,8.63
2023-02-09T13:47:50.446Z,8.03
2023-02-09T13:50:16.922Z,9.30
2023-02-09T13:52:43.432Z,7.90
2023-02-09T13:55:11.887Z,8.73
2023-02-09T13:57:43.658Z,7.87
2023-02-09T14:00:10.292Z,9.20
2023-02-09T14:02:36.843Z,8.70
2023-02-09T14:05:03.522Z,6.83
2023-02-09T14:07:30.027Z,8.83
2023-02-09T14:09:58.004Z,8.07
2023-02-09T14:12:47.446Z,9.00
2023-02-09T14:15:33.105Z,8.63
2023-02-09T14:17:59.741Z,8.70
2023-02-09T14:20:26.295Z,8.53
2023-02-09T14:22:52.786Z,8.63
2023-02-09T14:25:19.347Z,8.93
2023-02-09T14:27:45.896Z,8.73
2023-02-09T14:30:12.368Z,10.13
2023-02-09T14:32:40.317Z,8.93
2023-02-09T14:35:06.882Z,9.40
2023-02-09T14:37:33.519Z,9.10
2023-02-09T14:40:04.531Z,8.00
2023-02-09T14:42:31.073Z,8.53
2023-02-09T14:44:57.666Z,7.40
2023-02-09T14:47:24.157Z,8.20
2023-02-09T14:49:50.649Z,7.83
2023-02-09T14:52:18.574Z,6.83
2023-02-09T14:54:45.067Z,6.37
2023-02-09T14:57:11.606Z,6.30
2023-02-09T14:59:38.097Z,5.87
2023-02-09T15:02:04.678Z,6.50
2023-02-09T15:04:31.189Z,5.73
2023-02-09T15:06:57.716Z,6.67
2023-02-09T15:09:24.316Z,5.80
2023-02-09T15:12:06.192Z,5.40
2023-02-09T15:14:32.683Z,5.93
2023-02-09T15:16:59.405Z,5.87
2023-02-09T15:19:25.932Z,5.13
2023-02-09T15:22:05.506Z,6.37
2023-02-09T15:24:33.721Z,6.00
2023-02-09T15:27:00.230Z,6.40
2023-02-09T15:29:26.893Z,5.43
2023-02-09T15:31:55.050Z,6.20
2023-02-09T15:34:21.532Z,6.40
2023-02-09T15:36:48.035Z,6.90
2023-02-09T15:39:14.558Z,7.17
2023-02-09T15:42:00.093Z,5.83
2023-02-09T15:44:45.075Z,6.17
2023-02-09T15:47:30.015Z,6.53
2023-02-09T15:49:56.503Z,6.63
2023-02-09T15:52:23.167Z,6.93
2023-02-09T15:54:49.662Z,6.83
2023-02-09T15:57:16.159Z,6.33
2023-02-09T15:59:42.733Z,6.50
2023-02-09T16:02:09.283Z,6.47
2023-02-09T16:04:35.834Z,7.73
2023-02-09T16:07:02.344Z,7.50
2023-02-09T16:09:28.917Z,6.80
2023-02-09T16:11:55.545Z,7.03
2023-02-09T16:14:22.063Z,7.30
2023-02-09T16:16:48.774Z,9.20
2023-02-09T16:19:15.361Z,10.70
2023-02-09T16:21:41.830Z,10.20
2023-02-09T16:24:08.422Z,8.90
2023-02-09T16:26:35.025Z,8.30
2023-02-09T16:29:01.665Z,7.10
2023-02-09T16:31:28.206Z,8.47
2023-02-09T16:33:54.710Z,7.10
2023-02-09T16:36:21.190Z,7.60
2023-02-09T16:38:47.699Z,9.53
2023-02-09T16:41:34.178Z,8.40
2023-02-09T16:44:00.657Z,9.70
2023-02-09T16:46:27.362Z,6.87
2023-02-09T16:48:54.925Z,7.17
2023-02-09T16:51:21.479Z,7.30
2023-02-09T16:53:48.002Z,7.50
2023-02-09T16:56:15.378Z,7.20
2023-02-09T16:58:41.967Z,8.17
2023-02-09T17:01:08.477Z,9.90
2023-02-09T17:03:35.085Z,9.47
2023-02-09T17:06:02.250Z,6.77
2023-02-09T17:08:31.804Z,7.83
2023-02-09T17:10:58.286Z,7.23
2023-02-09T17:13:24.780Z,7.77
2023-02-09T17:15:51.318Z,6.50
2023-02-09T17:18:17.824Z,7.67
2023-02-09T17:20:44.329Z,5.83
2023-02-09T17:23:10.822Z,7.27
2023-02-09T17:25:38.108Z,6.43
2023-02-09T17:28:05.468Z,6.50
2023-02-09T17:30:32.065Z,6.30
2023-02-09T17:32:58.606Z,21.30
2023-02-09T17:35:48.844Z,6.93
2023-02-09T17:38:11.669Z,7.70
2023-02-09T17:40:38.145Z,7.20
2023-02-09T17:43:04.705Z,6.70
2023-02-09T17:45:34.852Z,7.67
2023-02-09T17:48:02.342Z,7.33
2023-02-09T17:50:29.057Z,6.93
2023-02-09T17:52:55.624Z,7.77
2023-02-09T17:55:22.195Z,8.47
2023-02-09T17:57:48.918Z,10.60
2023-02-09T18:00:15.681Z,15.57
2023-02-09T18:02:42.255Z,9.77
2023-02-09T18:05:08.791Z,14.27
2023-02-09T18:07:35.324Z,11.00
2023-02-09T18:10:01.906Z,15.10
2023-02-09T18:12:28.420Z,8.60
2023-02-09T18:14:54.964Z,8.80
2023-02-09T18:17:21.472Z,13.60
2023-02-09T18:19:47.956Z,26.23
2023-02-09T18:22:14.498Z,12.10
2023-02-09T18:24:41.692Z,9.60
2023-02-09T18:27:08.671Z,9.37
2023-02-09T18:29:35.202Z,9.93
2023-02-09T18:32:01.763Z,8.47
2023-02-09T18:34:28.275Z,8.73
2023-02-09T18:36:54.789Z,9.23
2023-02-09T18:39:21.336Z,9.10
2023-02-09T18:41:53.811Z,9.40
2023-02-09T18:44:23.577Z,9.03
2023-02-09T18:46:50.081Z,10.13
2023-02-09T18:49:16.568Z,8.43
2023-02-09T18:51:43.123Z,9.60
2023-02-09T18:54:09.634Z,9.27
2023-02-09T18:56:36.114Z,9.40
2023-02-09T18:59:02.621Z,9.97
2023-02-09T19:01:29.176Z,9.90
2023-02-09T19:03:55.738Z,10.80
2023-02-09T19:06:22.232Z,12.53
2023-02-09T19:08:50.018Z,11.03
2023-02-09T19:11:16.648Z,9.97
2023-02-09T19:13:43.149Z,13.70
2023-02-09T19:16:09.692Z,10.47
2023-02-09T19:18:38.184Z,9.03
2023-02-09T19:21:04.676Z,8.47
2023-02-09T19:23:31.164Z,9.43
2023-02-09T19:25:57.666Z,9.27
2023-02-09T19:28:24.308Z,9.73
2023-02-09T19:30:50.895Z,9.77
2023-02-09T19:33:17.503Z,10.27
2023-02-09T19:35:44.132Z,8.27
2023-02-09T19:38:10.693Z,9.50
2023-02-09T19:40:40.789Z,8.77
2023-02-09T19:43:07.356Z,9.77
2023-02-09T19:45:37.246Z,9.27
2023-02-09T19:48:03.754Z,9.60
2023-02-09T19:50:30.294Z,9.23
2023-02-09T19:52:57.266Z,10.10
2023-02-09T19:55:23.792Z,8.97
2023-02-09T19:57:50.272Z,10.37
2023-02-09T20:00:18.182Z,10.23
2023-02-09T20:02:44.752Z,10.97
2023-02-09T20:05:11.287Z,9.60
2023-02-09T20:07:37.883Z,10.27
2023-02-09T20:10:04.378Z,10.50
2023-02-09T20:12:30.935Z,10.63
2023-02-09T20:14:57.430Z,9.33
2023-02-09T20:17:23.991Z,11.10
2023-02-09T20:19:50.516Z,10.97
2023-02-09T20:22:17.132Z,9.10
2023-02-09T20:24:44.168Z,10.27
2023-02-09T20:27:12.777Z,12.50
2023-02-09T20:29:39.302Z,11.90
2023-02-09T20:32:06.288Z,11.83
2023-02-09T20:34:32.866Z,12.17
2023-02-09T20:36:59.563Z,12.50
2023-02-09T20:39:26.071Z,11.73
2023-02-09T20:42:15.887Z,12.37
2023-02-09T20:45:05.420Z,11.90
2023-02-09T20:47:31.932Z,12.03
2023-02-09T20:49:59.776Z,14.33
2023-02-09T20:52:26.973Z,13.70
2023-02-09T20:54:53.464Z,12.60
2023-02-09T20:57:20.042Z,12.63
2023-02-09T20:59:46.532Z,12.77
2023-02-09T21:02:13.149Z,12.97
2023-02-09T21:04:39.710Z,12.93
2023-02-09T21:07:06.214Z,12.80
2023-02-09T21:09:32.719Z,13.60
2023-02-09T21:11:59.243Z,13.20
2023-02-09T21:14:41.088Z,13.60
2023-02-09T21:17:08.444Z,14.10
2023-02-09T21:19:34.941Z,13.63
2023-02-09T21:22:01.463Z,11.47
2023-02-09T21:24:28.026Z,13.17
2023-02-09T21:26:54.502Z,13.73
2023-02-09T21:29:21.042Z,13.60
2023-02-09T21:31:47.604Z,15.03
2023-02-09T21:34:14.516Z,17.03
2023-02-09T21:36:41.076Z,14.60
2023-02-09T21:39:07.556Z,15.60
2023-02-09T21:41:52.932Z,15.90
2023-02-09T21:44:19.692Z,16.93
2023-02-09T21:46:46.202Z,16.50
2023-02-09T21:49:12.687Z,16.57
2023-02-09T21:51:39.341Z,17.13
2023-02-09T21:54:05.860Z,15.83
2023-02-09T21:56:32.376Z,17.93
2023-02-09T21:58:58.859Z,16.80
2023-02-09T22:01:25.374Z,18.27
2023-02-09T22:03:57.253Z,16.73
2023-02-09T22:06:24.875Z,16.97
2023-02-09T22:08:51.362Z,17.60
2023-02-09T22:11:17.856Z,17.37
2023-02-09T22:13:44.335Z,18.80
2023-02-09T22:16:11.089Z,16.93
2023-02-09T22:18:37.710Z,17.90
2023-02-09T22:21:04.181Z,18.00
2023-02-09T22:23:30.667Z,18.33
2023-02-09T22:25:57.170Z,18.83
2023-02-09T22:28:23.710Z,18.30
2023-02-09T22:30:50.246Z,20.47
2023-02-09T22:33:16.772Z,20.10
2023-02-09T22:35:43.262Z,19.80
2023-02-09T22:38:09.800Z,19.33
2023-02-09T22:40:36.314Z,20.53
2023-02-09T22:43:02.908Z,19.70
2023-02-09T22:45:29.400Z,24.30
2023-02-09T22:47:55.901Z,21.20
2023-02-09T22:50:22.386Z,22.43
2023-02-09T22:52:48.928Z,23.47
2023-02-09T22:55:15.434Z,20.40
2023-02-09T22:57:41.971Z,24.47
2023-02-09T23:00:08.555Z,22.33
2023-02-09T23:02:35.029Z,22.80
2023-02-09T23:05:01.540Z,22.47
2023-02-09T23:07:28.045Z,26.10
2023-02-09T23:09:54.521Z,22.97
2023-02-09T23:12:21.041Z,26.70
2023-02-09T23:14:47.523Z,28.90
2023-02-09T23:17:14.239Z,31.57
2023-02-09T23:19:40.808Z,30.80
2023-02-09T23:22:07.353Z,27.63
2023-02-09T23:24:33.829Z,29.40
2023-02-09T23:27:00.356Z,31.70
2023-02-09T23:29:27.949Z,28.50
2023-02-09T23:31:54.507Z,28.30
2023-02-09T23:34:20.991Z,32.27
2023-02-09T23:36:47.499Z,31.10
2023-02-09T23:39:13.996Z,30.90
2023-02-09T23:41:40.561Z,33.63
2023-02-09T23:44:07.057Z,34.97
2023-02-09T23:46:33.594Z,33.67
2023-02-09T23:49:00.104Z,34.17
2023-02-09T23:51:28.243Z,33.07
2023-02-09T23:53:54.796Z,34.30
2023-02-09T23:56:21.295Z,33.20
2023-02-09T23:58:47.871Z,33.87
